createdAt,value
2022-10-17T00:01:48.652Z,101763.07
2022-10-17T00:07:11.576Z,101758.03
2022-10-17T00:12:33.719Z,101775.05
2022-10-17T00:17:55.889Z,101783.05
2022-10-17T00:23:18.235Z,101774.73
2022-10-17T00:28:40.620Z,101791.40
2022-10-17T00:34:02.770Z,101788.19
2022-10-17T00:39:24.969Z,101784.73
2022-10-17T00:44:57.948Z,101779.86
2022-10-17T00:50:21.252Z,101783.13
2022-10-17T00:55:51.093Z,101756.48
2022-10-17T01:01:14.569Z,101776.17
2022-10-17T01:06:36.793Z,101778.56
2022-10-17T01:12:29.569Z,101786.28
2022-10-17T01:18:20.433Z,101788.59
2022-10-17T01:24:02.755Z,101799.56
2022-10-17T01:29:38.495Z,101798.44
2022-10-17T01:35:20.763Z,101803.19
2022-10-17T01:40:48.568Z,101821.09
2022-10-17T01:46:18.792Z,101824.86
2022-10-17T01:57:19.314Z,101820.76
2022-10-17T02:02:43.885Z,101815.95
2022-10-17T02:08:06.026Z,101814.30
2022-10-17T02:13:57.428Z,101807.38
2022-10-17T02:19:30.342Z,101810.76
2022-10-17T02:25:09.032Z,101825.81
2022-10-17T02:30:52.636Z,101838.00
2022-10-17T02:36:19.047Z,101832.50
2022-10-17T02:41:43.386Z,101840.69
2022-10-17T02:47:10.395Z,101838.73
2022-10-17T02:52:47.013Z,101839.77
2022-10-17T02:58:20.401Z,101839.81
2022-10-17T03:03:44.972Z,101840.45
2022-10-17T03:09:07.475Z,101854.34
2022-10-17T03:14:30.605Z,101853.09
2022-10-17T03:19:52.752Z,101849.23
2022-10-17T03:25:14.876Z,101863.02
2022-10-17T03:30:37.103Z,101873.84
2022-10-17T03:35:59.250Z,101869.48
2022-10-17T03:41:22.613Z,101869.06
2022-10-17T03:46:44.843Z,101877.39
2022-10-17T03:52:07.007Z,101894.64
2022-10-17T03:57:30.326Z,101893.54
2022-10-17T04:02:54.275Z,101906.79
2022-10-17T04:08:16.418Z,101895.72
2022-10-17T04:13:38.549Z,101886.02
2022-10-17T04:19:03.998Z,101897.63
2022-10-17T04:24:29.415Z,101884.97
2022-10-17T04:29:51.534Z,101883.25
2022-10-17T04:35:13.903Z,101908.37
2022-10-17T04:40:37.255Z,101901.09
2022-10-17T04:46:00.544Z,101886.89
2022-10-17T04:51:26.780Z,101890.08
2022-10-17T04:56:49.887Z,101899.59
2022-10-17T05:02:12.448Z,101906.16
2022-10-17T05:07:34.669Z,101905.73
2022-10-17T05:12:56.905Z,101916.30
2022-10-17T05:18:19.910Z,101912.52
2022-10-17T05:23:42.644Z,101931.91
2022-10-17T05:29:06.588Z,101924.48
2022-10-17T05:34:29.282Z,101906.91
2022-10-17T05:39:51.714Z,101922.22
2022-10-17T05:45:14.509Z,101922.30
2022-10-17T05:50:37.687Z,101935.59
2022-10-17T05:56:04.754Z,101928.98
2022-10-17T06:01:28.140Z,101929.95
2022-10-17T06:06:50.751Z,101937.23
2022-10-17T06:12:13.807Z,101953.08
2022-10-17T06:17:35.955Z,101951.98
2022-10-17T06:22:58.127Z,101956.66
2022-10-17T06:28:21.246Z,101962.48
2022-10-17T06:33:43.697Z,101961.03
2022-10-17T06:39:06.003Z,101962.58
2022-10-17T06:44:29.787Z,101968.48
2022-10-17T06:49:52.426Z,101973.25
2022-10-17T06:55:16.901Z,101984.09
2022-10-17T07:00:38.780Z,101990.30
2022-10-17T07:06:05.068Z,102000.27
2022-10-17T07:11:33.279Z,102004.92
2022-10-17T07:16:57.579Z,101994.69
2022-10-17T07:22:20.733Z,101999.36
2022-10-17T07:27:43.472Z,101995.34
2022-10-17T07:33:07.214Z,101993.83
2022-10-17T07:38:30.400Z,101998.44
2022-10-17T07:43:53.133Z,102001.25
2022-10-17T07:49:15.839Z,102004.28
2022-10-17T07:54:38.246Z,101999.53
2022-10-17T08:00:00.409Z,101995.63
2022-10-17T08:05:22.812Z,101988.03
2022-10-17T08:10:45.517Z,101975.02
2022-10-17T08:16:10.092Z,101977.89
2022-10-17T08:21:32.707Z,101976.20
2022-10-17T08:26:54.917Z,101971.73
2022-10-17T08:32:17.128Z,101973.52
2022-10-17T08:37:39.324Z,101968.14
2022-10-17T08:43:21.536Z,101962.34
2022-10-17T08:48:47.231Z,101951.47
2022-10-17T08:54:20.686Z,101950.33
2022-10-17T08:59:44.486Z,101944.08
2022-10-17T09:05:50.776Z,101946.11
2022-10-17T09:11:39.492Z,101944.66
2022-10-17T09:17:26.222Z,101940.64
2022-10-17T09:23:08.186Z,101937.12
2022-10-17T09:28:46.441Z,101933.05
2022-10-17T09:34:11.937Z,101928.20
2022-10-17T09:39:41.550Z,101936.39
2022-10-17T09:45:22.613Z,101936.44
2022-10-17T09:51:25.644Z,101943.94
2022-10-17T09:56:40.513Z,101932.30
2022-10-17T10:02:21.293Z,101934.73
2022-10-17T10:07:47.198Z,101941.30
2022-10-17T10:13:29.372Z,101951.26
2022-10-17T10:18:54.173Z,101940.81
2022-10-17T10:24:30.877Z,101942.61
2022-10-17T10:29:58.508Z,101923.73
2022-10-17T10:35:30.983Z,101925.36
2022-10-17T10:41:13.187Z,101918.22
2022-10-17T10:46:41.495Z,101919.38
2022-10-17T10:52:05.786Z,101917.33
2022-10-17T10:57:32.970Z,101912.61
2022-10-17T11:03:17.850Z,101896.82
2022-10-17T11:08:54.859Z,101897.22
2022-10-17T11:14:36.467Z,101888.00
2022-10-17T11:20:18.043Z,101882.83
2022-10-17T11:25:46.502Z,101877.16
2022-10-17T11:31:26.222Z,101872.86
2022-10-17T11:36:51.527Z,101871.77
2022-10-17T11:42:18.735Z,101881.30
2022-10-17T11:48:00.394Z,101868.80
2022-10-17T11:53:30.150Z,101863.92
2022-10-17T11:58:55.650Z,101863.48
2022-10-17T12:05:02.874Z,101862.64
2022-10-17T12:10:48.567Z,101858.95
2022-10-17T12:16:29.076Z,101842.42
2022-10-17T12:22:14.492Z,101850.39
2022-10-17T12:27:47.728Z,101834.05
2022-10-17T12:33:24.885Z,101830.70
2022-10-17T12:38:50.074Z,101821.23
2022-10-17T12:44:14.971Z,101812.73
2022-10-17T12:55:35.994Z,101827.05
2022-10-17T13:01:24.324Z,101817.66
2022-10-17T13:06:45.644Z,101813.44
2022-10-17T13:12:10.985Z,101796.13
2022-10-17T13:17:43.974Z,101803.49
2022-10-17T13:23:07.232Z,101794.58
2022-10-17T13:28:32.410Z,101784.97
2022-10-17T13:34:01.212Z,101780.46
2022-10-17T13:39:52.399Z,101778.38
2022-10-17T13:44:55.602Z,101770.95
2022-10-17T13:50:43.475Z,101762.48
2022-10-17T13:56:22.820Z,101766.13
2022-10-17T14:01:26.897Z,101761.16
2022-10-17T14:06:56.370Z,101742.84
2022-10-17T14:12:26.060Z,101745.05
2022-10-17T14:17:50.182Z,101739.20
2022-10-17T14:23:22.773Z,101733.56
2022-10-17T14:28:41.053Z,101727.26
2022-10-17T14:34:06.422Z,101737.69
2022-10-17T14:39:33.144Z,101728.23
2022-10-17T14:44:56.125Z,101733.14
2022-10-17T14:50:32.321Z,101727.06
2022-10-17T14:56:04.549Z,101722.47
2022-10-17T15:01:26.794Z,101737.34
2022-10-17T15:06:51.502Z,101727.39
2022-10-17T15:12:23.567Z,101724.72
2022-10-17T15:17:47.410Z,101721.99
2022-10-17T15:23:11.705Z,101719.69
2022-10-17T15:28:34.462Z,101730.11
2022-10-17T15:33:57.693Z,101727.10
2022-10-17T15:39:22.175Z,101724.33
2022-10-17T15:44:44.987Z,101719.62
2022-10-17T15:50:09.242Z,101720.58
2022-10-17T15:55:32.368Z,101732.17
2022-10-17T16:00:54.609Z,101721.17
2022-10-17T16:06:16.873Z,101733.92
2022-10-17T16:11:53.290Z,101729.23
2022-10-17T16:17:17.704Z,101727.52
2022-10-17T16:22:43.391Z,101722.23
2022-10-17T16:28:08.939Z,101728.67
2022-10-17T16:33:31.864Z,101733.67
2022-10-17T16:38:55.340Z,101735.39
2022-10-17T16:44:20.053Z,101721.92
2022-10-17T16:49:45.200Z,101724.56
2022-10-17T16:55:10.712Z,101720.94
2022-10-17T17:00:33.513Z,101715.78
2022-10-17T17:05:58.340Z,101720.16
2022-10-17T17:11:22.441Z,101724.94
2022-10-17T17:16:46.346Z,101720.97
2022-10-17T17:22:08.513Z,101725.31
2022-10-17T17:27:31.016Z,101721.47
2022-10-17T17:32:53.620Z,101719.27
2022-10-17T17:38:15.801Z,101723.92
2022-10-17T17:43:38.093Z,101725.91
2022-10-17T17:49:01.335Z,101725.44
2022-10-17T17:54:23.475Z,101724.84
2022-10-17T17:59:45.611Z,101724.14
2022-10-17T18:05:08.496Z,101724.87
2022-10-17T18:10:30.709Z,101723.30
2022-10-17T18:15:58.006Z,101712.84
2022-10-17T18:21:21.819Z,101708.58
2022-10-17T18:26:45.579Z,101707.49
2022-10-17T18:32:07.943Z,101708.11
2022-10-17T18:37:31.084Z,101707.86
2022-10-17T18:42:54.814Z,101705.01
2022-10-17T18:48:17.595Z,101698.17
2022-10-17T18:53:41.332Z,101692.22
2022-10-17T18:59:04.625Z,101689.84
2022-10-17T19:04:27.213Z,101688.92
2022-10-17T19:09:49.431Z,101684.22
2022-10-17T19:15:11.782Z,101690.84
2022-10-17T19:20:33.938Z,101687.86
2022-10-17T19:25:58.372Z,101696.20
2022-10-17T19:31:26.302Z,101708.61
2022-10-17T19:36:47.934Z,101702.05
2022-10-17T19:42:10.167Z,101698.85
2022-10-17T19:47:32.416Z,101704.14
2022-10-17T19:52:54.661Z,101698.05
2022-10-17T19:58:16.880Z,101694.69
2022-10-17T20:03:39.989Z,101687.36
2022-10-17T20:09:02.614Z,101687.06
2022-10-17T20:14:24.750Z,101699.17
2022-10-17T20:19:47.498Z,101695.85
2022-10-17T20:25:10.296Z,101695.79
2022-10-17T20:30:32.511Z,101684.36
2022-10-17T20:35:56.315Z,101689.17
2022-10-17T20:41:24.038Z,101688.01
2022-10-17T20:47:00.713Z,101698.07
2022-10-17T20:52:10.768Z,101693.97
2022-10-17T20:57:32.904Z,101699.06
2022-10-17T21:08:19.733Z,101695.39
2022-10-17T21:13:41.904Z,101699.61
2022-10-17T21:19:04.258Z,101703.95
2022-10-17T21:24:29.223Z,101690.56
2022-10-17T21:29:52.239Z,101687.05
2022-10-17T21:35:14.417Z,101681.61
2022-10-17T21:40:36.598Z,101677.16
2022-10-17T21:45:58.841Z,101682.13
2022-10-17T21:51:24.146Z,101680.75
2022-10-17T21:56:47.113Z,101684.86
2022-10-17T22:02:09.244Z,101686.12
2022-10-17T22:07:32.266Z,101687.33
2022-10-17T22:12:54.409Z,101683.30
2022-10-17T22:18:17.648Z,101674.52
2022-10-17T22:23:39.943Z,101682.00
2022-10-17T22:29:02.261Z,101683.70
2022-10-17T22:34:26.023Z,101675.27
2022-10-17T22:39:48.248Z,101677.50
2022-10-17T22:45:10.567Z,101668.42
2022-10-17T22:50:35.943Z,101676.70
2022-10-17T22:56:04.346Z,101676.41
2022-10-17T23:01:29.758Z,101676.13
2022-10-17T23:06:51.930Z,101679.11
2022-10-17T23:12:14.787Z,101679.05
2022-10-17T23:17:36.922Z,101669.24
2022-10-17T23:22:59.166Z,101671.63
2022-10-17T23:28:21.408Z,101674.22
2022-10-17T23:33:45.265Z,101666.55
2022-10-17T23:39:07.730Z,101670.77
2022-10-17T23:44:30.445Z,101674.37
2022-10-17T23:49:52.596Z,101669.12
2022-10-17T23:55:16.460Z,101669.67
